^^
Datos históricos de la estación: Murcia-Puente Tocinos
Diario Informe para Diciembre 31, 2019 Unidades:  Ambas    Ingés   Métrico
Diario Semanal Mensual Anual
  Máxima: Mínima: Promedio:
Temperatura: 56.7 °F /  13.7 °C 42.1 °F /  5.6 °C 48.7 °F /  9.3 °C
Punto de rocio: 48 °F /  8.9 °C 39 °F /  3.9 °C 43.9 °F /  6.6 °C
Humedad: 90% 71% 84%
Velocidad viento: 5.9mph /  9.5km/h - 3.3mph /  5.3km/h
Racha viento: 10mph /  16.1km/h - -
Viento- - SSE
Presión: 30.5 in /  1033.7 hPa 30.4 in /  1030.4 hPa -
Precipitación: 0 in /  0.0 mm    
 
 
Tabla de datos para Diciembre 31, 2019
Hora Temperatura Punto de rocio Presión Viento Velocidad viento Racha viento Humedad Intensidad lluvia(por hora) Nubes
00:04 48 °F /  8.9 °C 43.9 °F /  6.6 °C 30.5in /  1031.4hPa Calm     86% 0in /  0.0mm
00:09 47.8 °F /  8.8 °C 43.9 °F /  6.6 °C 30.5in /  1031.4hPa Calm   1.8mph /  2.9km/h 86% 0in /  0.0mm
00:14 47.7 °F /  8.7 °C 43.7 °F /  6.5 °C 30.5in /  1031.4hPa Calm   2.3mph /  3.7km/h 86% 0in /  0.0mm
00:19 47.7 °F /  8.7 °C 43.7 °F /  6.5 °C 30.5in /  1031.4hPa Calm   2.3mph /  3.7km/h 86% 0in /  0.0mm
00:24 47.7 °F /  8.7 °C 43.9 °F /  6.6 °C 30.5in /  1031.4hPa Calm   2mph /  3.2km/h 86.8% 0in /  0.0mm
00:29 47.5 °F /  8.6 °C 43.7 °F /  6.5 °C 30.5in /  1031.3hPa Calm     86.9% 0in /  0.0mm
00:34 47.5 °F /  8.6 °C 43.7 °F /  6.5 °C 30.5in /  1031.3hPa Calm   4mph /  6.4km/h 86.8% 0in /  0.0mm
00:39 47.3 °F /  8.5 °C 43.5 °F /  6.4 °C 30.5in /  1031.3hPa Calm   5mph /  8km/h 87% 0in /  0.0mm
00:44 47.1 °F /  8.4 °C 43.3 °F /  6.3 °C 30.5in /  1031.1hPa SE 1mph /  1.6km/h 5.2mph /  8.4km/h 87% 0in /  0.0mm
00:49 46.9 °F /  8.3 °C 43.3 °F /  6.3 °C 30.5in /  1031.1hPa SE 1.8mph /  2.9km/h 5mph /  8km/h 87% 0in /  0.0mm
00:54 46.9 °F /  8.3 °C 43.3 °F /  6.3 °C 30.5in /  1031.1hPa SE 1.9mph /  3.1km/h 3.1mph /  5km/h 87% 0in /  0.0mm
00:59 46.8 °F /  8.2 °C 43.2 °F /  6.2 °C 30.5in /  1031.1hPa SE 2mph /  3.2km/h 3.5mph /  5.6km/h 87% 0in /  0.0mm
01:04 46.8 °F /  8.2 °C 43 °F /  6.1 °C 30.5in /  1031.1hPa SSE 2mph /  3.2km/h 3mph /  4.8km/h 87% 0in /  0.0mm
01:09 46.6 °F /  8.1 °C 43 °F /  6.1 °C 30.5in /  1031.1hPa SSE 2mph /  3.2km/h 3mph /  4.8km/h 87% 0in /  0.0mm
01:14 46.6 °F /  8.1 °C 42.8 °F /  6 °C 30.4in /  1030.8hPa SSE 1.6mph /  2.6km/h 2.3mph /  3.7km/h 87% 0in /  0.0mm
01:19 46.4 °F /  8 °C 43 °F /  6.1 °C 30.4in /  1030.8hPa SSE 1.4mph /  2.2km/h 2.4mph /  3.9km/h 87.8% 0in /  0.0mm
01:24 46.2 °F /  7.9 °C 43 °F /  6.1 °C 30.4in /  1030.8hPa SSE 0.5mph /  0.8km/h 2.9mph /  4.7km/h 88% 0in /  0.0mm
01:29 46.2 °F /  7.9 °C 43 °F /  6.1 °C 30.4in /  1030.8hPa Calm   3.5mph /  5.6km/h 88% 0in /  0.0mm
01:34 46.2 °F /  7.9 °C 43 °F /  6.1 °C 30.4in /  1030.8hPa Sur 1.1mph /  1.8km/h 4.6mph /  7.4km/h 88% 0in /  0.0mm
01:39 46.2 °F /  7.9 °C 43 °F /  6.1 °C 30.4in /  1030.8hPa SSE 1.8mph /  2.9km/h 5mph /  8km/h 88% 0in /  0.0mm
01:44 46.2 °F /  7.9 °C 43 °F /  6.1 °C 30.4in /  1030.8hPa Sur 2.2mph /  3.5km/h 5mph /  8km/h 88% 0in /  0.0mm
01:49 46.2 °F /  7.9 °C 42.8 °F /  6 °C 30.4in /  1030.8hPa Sur 2.4mph /  3.9km/h 4.6mph /  7.4km/h 88% 0in /  0.0mm
01:54 46 °F /  7.8 °C 42.8 °F /  6 °C 30.4in /  1030.8hPa SSE 2.7mph /  4.4km/h 5mph /  8km/h 88% 0in /  0.0mm
01:59 46 °F /  7.8 °C 42.6 °F /  5.9 °C 30.4in /  1030.8hPa Sur 2.9mph /  4.7km/h 5.2mph /  8.4km/h 88% 0in /  0.0mm
02:04 46 °F /  7.8 °C 42.6 °F /  5.9 °C 30.4in /  1030.8hPa Sur 2.9mph /  4.7km/h 5.8mph /  9.3km/h 88% 0in /  0.0mm
02:09 46 °F /  7.8 °C 42.6 °F /  5.9 °C 30.4in /  1030.8hPa SSO 2.9mph /  4.6km/h 6mph /  9.7km/h 88% 0in /  0.0mm
02:14 45.9 °F /  7.7 °C 42.6 °F /  5.9 °C 30.4in /  1030.7hPa SSO 3.3mph /  5.3km/h 5mph /  8km/h 88% 0in /  0.0mm
02:19 45.9 °F /  7.7 °C 42.4 °F /  5.8 °C 30.4in /  1030.7hPa Sur 3.6mph /  5.8km/h 5mph /  8km/h 88% 0in /  0.0mm
02:24 45.9 °F /  7.7 °C 42.4 °F /  5.8 °C 30.4in /  1030.7hPa SSE 3.3mph /  5.3km/h 6.9mph /  11.1km/h 88% 0in /  0.0mm
02:29 45.9 °F /  7.7 °C 42.4 °F /  5.8 °C 30.4in /  1030.7hPa SSE 3.1mph /  5km/h 7mph /  11.3km/h 88% 0in /  0.0mm
02:34 45.7 °F /  7.6 °C 42.3 °F /  5.7 °C 30.4in /  1030.7hPa SSE 3.4mph /  5.5km/h 5.2mph /  8.4km/h 88% 0in /  0.0mm
02:39 45.3 °F /  7.4 °C 42.1 °F /  5.6 °C 30.4in /  1030.7hPa Sur 3.6mph /  5.8km/h 5mph /  8km/h 88% 0in /  0.0mm
02:44 45.3 °F /  7.4 °C 42.1 °F /  5.6 °C 30.4in /  1030.7hPa Sur 3.3mph /  5.3km/h 5mph /  8km/h 88% 0in /  0.0mm
02:49 45.3 °F /  7.4 °C 42.1 °F /  5.6 °C 30.4in /  1030.7hPa SSO 3.1mph /  5km/h 5mph /  8km/h 88% 0in /  0.0mm
02:54 45.3 °F /  7.4 °C 42.1 °F /  5.6 °C 30.4in /  1030.8hPa SO 3mph /  4.8km/h 5.2mph /  8.4km/h 88% 0in /  0.0mm
02:59 45.3 °F /  7.4 °C 42.1 °F /  5.6 °C 30.4in /  1030.8hPa SO 2.9mph /  4.7km/h 5.2mph /  8.4km/h 88% 0in /  0.0mm
03:04 45.3 °F /  7.4 °C 42.1 °F /  5.6 °C 30.4in /  1030.8hPa SO 3mph /  4.9km/h 5mph /  8km/h 88% 0in /  0.0mm
03:09 45.3 °F /  7.4 °C 42.1 °F /  5.6 °C 30.4in /  1030.8hPa SO 3.1mph /  5km/h 5mph /  8km/h 88% 0in /  0.0mm
03:14 45.3 °F /  7.4 °C 42.1 °F /  5.6 °C 30.4in /  1030.8hPa SO 2.7mph /  4.3km/h 5mph /  8km/h 88% 0in /  0.0mm
03:19 45.3 °F /  7.4 °C 41.9 °F /  5.5 °C 30.4in /  1030.8hPa SSO 2.4mph /  3.9km/h 5mph /  8km/h 88% 0in /  0.0mm
03:24 45.1 °F /  7.3 °C 41.9 °F /  5.5 °C 30.4in /  1030.8hPa SSO 2.7mph /  4.4km/h 5.8mph /  9.3km/h 88% 0in /  0.0mm
03:29 45.1 °F /  7.3 °C 41.9 °F /  5.5 °C 30.4in /  1030.8hPa SSO 2.9mph /  4.6km/h 6mph /  9.7km/h 88% 0in /  0.0mm
03:34 45.1 °F /  7.3 °C 41.9 °F /  5.5 °C 30.4in /  1030.8hPa SSO 3.4mph /  5.4km/h 6mph /  9.7km/h 88% 0in /  0.0mm
03:39 45.1 °F /  7.3 °C 41.9 °F /  5.5 °C 30.4in /  1030.8hPa SSO 3.6mph /  5.8km/h 6mph /  9.7km/h 88% 0in /  0.0mm
03:44 45.1 °F /  7.3 °C 41.7 °F /  5.4 °C 30.4in /  1030.8hPa SSO 3.6mph /  5.8km/h 6mph /  9.7km/h 87.3% 0in /  0.0mm
03:49 45.1 °F /  7.3 °C 41.5 °F /  5.3 °C 30.4in /  1030.8hPa SSE 3.6mph /  5.8km/h 5.8mph /  9.3km/h 87% 0in /  0.0mm
03:54 45.1 °F /  7.3 °C 41.5 °F /  5.3 °C 30.4in /  1030.9hPa Sur 3.3mph /  5.3km/h 6mph /  9.7km/h 87% 0in /  0.0mm
03:59 45 °F /  7.2 °C 41.4 °F /  5.2 °C 30.4in /  1030.9hPa Sur 3.1mph /  5km/h 6mph /  9.7km/h 87% 0in /  0.0mm
04:04 45 °F /  7.2 °C 41.2 °F /  5.1 °C 30.4in /  1030.9hPa Sur 3.4mph /  5.5km/h 6mph /  9.7km/h 87% 0in /  0.0mm
04:09 44.8 °F /  7.1 °C 41.2 °F /  5.1 °C 30.4in /  1030.9hPa Sur 3.6mph /  5.8km/h 6.9mph /  11.1km/h 87% 0in /  0.0mm
04:14 44.8 °F /  7.1 °C 41 °F /  5 °C 30.4in /  1030.8hPa Sur 4mph /  6.4km/h 7mph /  11.3km/h 87% 0in /  0.0mm
04:19 44.4 °F /  6.9 °C 40.8 °F /  4.9 °C 30.4in /  1030.8hPa SSE 4.3mph /  6.9km/h 7mph /  11.3km/h 87% 0in /  0.0mm
04:24 44.2 °F /  6.8 °C 40.6 °F /  4.8 °C 30.4in /  1030.8hPa Sur 4.3mph /  6.9km/h 7mph /  11.3km/h 87% 0in /  0.0mm
04:29 44.1 °F /  6.7 °C 40.6 °F /  4.8 °C 30.4in /  1030.8hPa SSE 4.3mph /  6.9km/h 7mph /  11.3km/h 88% 0in /  0.0mm
04:34 43.7 °F /  6.5 °C 40.5 °F /  4.7 °C 30.4in /  1030.8hPa Sur 4.5mph /  7.3km/h 8.1mph /  13km/h 88% 0in /  0.0mm
04:39 43.5 °F /  6.4 °C 40.3 °F /  4.6 °C 30.4in /  1030.8hPa SSE 4.7mph /  7.6km/h 8mph /  12.9km/h 88.1% 0in /  0.0mm
04:44 43.5 °F /  6.4 °C 40.5 °F /  4.7 °C 30.4in /  1030.7hPa Sur 4.7mph /  7.6km/h 7mph /  11.3km/h 89% 0in /  0.0mm
04:49 43.3 °F /  6.3 °C 40.3 °F /  4.6 °C 30.4in /  1030.7hPa Sur 4.7mph /  7.6km/h 8.5mph /  13.7km/h 89% 0in /  0.0mm
04:54 43.3 °F /  6.3 °C 40.3 °F /  4.6 °C 30.4in /  1030.7hPa Sur 5mph /  8.1km/h 9mph /  14.5km/h 89% 0in /  0.0mm
04:59 43.3 °F /  6.3 °C 40.3 °F /  4.6 °C 30.4in /  1030.6hPa SSO 5.2mph /  8.4km/h 8mph /  12.9km/h 89% 0in /  0.0mm
05:04 43.5 °F /  6.4 °C 40.5 °F /  4.7 °C 30.4in /  1030.6hPa Sur 4.8mph /  7.8km/h 7mph /  11.3km/h 89% 0in /  0.0mm
05:09 43.5 °F /  6.4 °C 40.5 °F /  4.7 °C 30.4in /  1030.6hPa Sur 4.7mph /  7.6km/h 7.4mph /  11.9km/h 89% 0in /  0.0mm
05:14 43.5 °F /  6.4 °C 40.5 °F /  4.7 °C 30.4in /  1030.6hPa Sur 5mph /  8.1km/h 7.4mph /  11.9km/h 89% 0in /  0.0mm
05:19 43.5 °F /  6.4 °C 40.3 °F /  4.6 °C 30.4in /  1030.6hPa Sur 5.2mph /  8.4km/h 7mph /  11.3km/h 88.2% 0in /  0.0mm
05:24 43.5 °F /  6.4 °C 40.3 °F /  4.6 °C 30.4in /  1030.7hPa Sur 4.9mph /  7.9km/h 6.9mph /  11.1km/h 88% 0in /  0.0mm
05:29 43.5 °F /  6.4 °C 40.3 °F /  4.6 °C 30.4in /  1030.7hPa SSO 4.7mph /  7.6km/h 7mph /  11.3km/h 88% 0in /  0.0mm
05:34 43.5 °F /  6.4 °C 40.3 °F /  4.6 °C 30.4in /  1030.7hPa Sur 4.7mph /  7.6km/h 7mph /  11.3km/h 88% 0in /  0.0mm
05:39 43.5 °F /  6.4 °C 40.1 °F /  4.5 °C 30.4in /  1030.8hPa Sur 4.7mph /  7.6km/h 7mph /  11.3km/h 88% 0in /  0.0mm
05:44 43.3 °F /  6.3 °C 39.9 °F /  4.4 °C 30.4in /  1030.8hPa Sur 4.5mph /  7.2km/h 6mph /  9.7km/h 88% 0in /  0.0mm
05:49 43.3 °F /  6.3 °C 39.9 °F /  4.4 °C 30.4in /  1030.8hPa Sur 4.3mph /  6.9km/h 6.4mph /  10.3km/h 88% 0in /  0.0mm
05:54 43.3 °F /  6.3 °C 39.9 °F /  4.4 °C 30.4in /  1030.9hPa Sur 4.5mph /  7.3km/h 7mph /  11.3km/h 88% 0in /  0.0mm
05:59 43.2 °F /  6.2 °C 39.7 °F /  4.3 °C 30.4in /  1030.9hPa Sur 4.7mph /  7.6km/h 7.4mph /  11.9km/h 88% 0in /  0.0mm
06:04 43.2 °F /  6.2 °C 39.7 °F /  4.3 °C 30.4in /  1030.9hPa Sur 4.7mph /  7.6km/h 7mph /  11.3km/h 88% 0in /  0.0mm
06:09 43.2 °F /  6.2 °C 39.7 °F /  4.3 °C 30.4in /  1031.0hPa Sur 4.7mph /  7.6km/h 7mph /  11.3km/h 88% 0in /  0.0mm
06:14 43 °F /  6.1 °C 39.7 °F /  4.3 °C 30.4in /  1031.0hPa Sur 4.7mph /  7.6km/h 7mph /  11.3km/h 88% 0in /  0.0mm
06:19 43 °F /  6.1 °C 39.9 °F /  4.4 °C 30.4in /  1031.0hPa SSO 4.7mph /  7.6km/h 7mph /  11.3km/h 88.9% 0in /  0.0mm
06:24 43.2 °F /  6.2 °C 40.1 °F /  4.5 °C 30.5in /  1031.1hPa SSO 4.7mph /  7.6km/h 7mph /  11.3km/h 89% 0in /  0.0mm
06:29 43.3 °F /  6.3 °C 40.3 °F /  4.6 °C 30.5in /  1031.1hPa SSO 4.7mph /  7.6km/h 7mph /  11.3km/h 89% 0in /  0.0mm
06:34 43.3 °F /  6.3 °C 40.5 °F /  4.7 °C 30.5in /  1031.1hPa SSO 4.5mph /  7.2km/h 6.9mph /  11.1km/h 89% 0in /  0.0mm
06:39 43.5 °F /  6.4 °C 40.6 °F /  4.8 °C 30.5in /  1031.1hPa SO 4.3mph /  6.9km/h 7mph /  11.3km/h 89% 0in /  0.0mm
06:44 43.9 °F /  6.6 °C 40.6 °F /  4.8 °C 30.5in /  1031.1hPa SSO 4.3mph /  6.9km/h 7.4mph /  11.9km/h 88.3% 0in /  0.0mm
06:49 43.9 °F /  6.6 °C 40.6 °F /  4.8 °C 30.5in /  1031.1hPa SSO 4.3mph /  6.9km/h 7.4mph /  11.9km/h 88% 0in /  0.0mm
06:54 44.1 °F /  6.7 °C 40.6 °F /  4.8 °C 30.5in /  1031.3hPa Sur 4.5mph /  7.3km/h 7mph /  11.3km/h 87.6% 0in /  0.0mm
06:59 44.1 °F /  6.7 °C 40.5 °F /  4.7 °C 30.5in /  1031.3hPa Sur 4.7mph /  7.6km/h 6mph /  9.7km/h 87% 0in /  0.0mm
07:04 43.9 °F /  6.6 °C 40.3 °F /  4.6 °C 30.5in /  1031.3hPa SSO 3.7mph /  5.9km/h 5.2mph /  8.4km/h 87% 0in /  0.0mm
07:09 43.7 °F /  6.5 °C 40.1 °F /  4.5 °C 30.5in /  1031.5hPa SSO 3.1mph /  5km/h 5mph /  8km/h 87% 0in /  0.0mm
07:14 43.5 °F /  6.4 °C 39.9 °F /  4.4 °C 30.5in /  1031.5hPa SSO 3.1mph /  5km/h 5.8mph /  9.3km/h 87% 0in /  0.0mm
07:19 43.5 °F /  6.4 °C 39.9 °F /  4.4 °C 30.5in /  1031.5hPa SSO 3.1mph /  5km/h 6mph /  9.7km/h 87% 0in /  0.0mm
07:24 43.5 °F /  6.4 °C 39.9 °F /  4.4 °C 30.5in /  1031.7hPa Sur 3.1mph /  5km/h 6mph /  9.7km/h 87% 0in /  0.0mm
07:29 43.3 °F /  6.3 °C 39.7 °F /  4.3 °C 30.5in /  1031.7hPa Sur 3.1mph /  5km/h 6mph /  9.7km/h 87% 0in /  0.0mm
07:34 43.2 °F /  6.2 °C 39.6 °F /  4.2 °C 30.5in /  1031.7hPa Sur 3.1mph /  5km/h 5mph /  8km/h 87% 0in /  0.0mm
07:39 43.2 °F /  6.2 °C 39.6 °F /  4.2 °C 30.5in /  1031.8hPa Sur 3.1mph /  5km/h 5mph /  8km/h 87% 0in /  0.0mm
07:44 43.2 °F /  6.2 °C 39.6 °F /  4.2 °C 30.5in /  1031.8hPa SSE 3mph /  4.8km/h 5mph /  8km/h 87% 0in /  0.0mm
07:49 42.8 °F /  6 °C 39.2 °F /  4 °C 30.5in /  1031.8hPa SE 2.9mph /  4.6km/h 5.9mph /  9.5km/h 87% 0in /  0.0mm
07:54 42.6 °F /  5.9 °C 39 °F /  3.9 °C 30.5in /  1031.8hPa SSE 3.5mph /  5.6km/h 6.2mph /  10km/h 87.4% 0in /  0.0mm
07:59 42.4 °F /  5.8 °C 39 °F /  3.9 °C 30.5in /  1031.8hPa SSE 4mph /  6.5km/h 6mph /  9.7km/h 88% 0in /  0.0mm
08:04 42.4 °F /  5.8 °C 39 °F /  3.9 °C 30.5in /  1031.8hPa SSE 3.7mph /  6km/h 6mph /  9.7km/h 88% 0in /  0.0mm
08:09 42.3 °F /  5.7 °C 39 °F /  3.9 °C 30.5in /  1031.8hPa SSE 3.6mph /  5.8km/h 6.9mph /  11.1km/h 88.6% 0in /  0.0mm
08:14 42.1 °F /  5.6 °C 39 °F /  3.9 °C 30.5in /  1031.8hPa Sur 4mph /  6.5km/h 7mph /  11.3km/h 89% 0in /  0.0mm
08:19 42.1 °F /  5.6 °C 39.2 °F /  4 °C 30.5in /  1031.8hPa Sur 4.3mph /  6.9km/h 6mph /  9.7km/h 89.5% 0in /  0.0mm
08:24 42.1 °F /  5.6 °C 39.4 °F /  4.1 °C 30.5in /  1031.8hPa SSO 3.9mph /  6.2km/h 5.2mph /  8.4km/h 90% 0in /  0.0mm
08:29 42.3 °F /  5.7 °C 39.4 °F /  4.1 °C 30.5in /  1031.8hPa SO 3.6mph /  5.8km/h 5.8mph /  9.3km/h 90% 0in /  0.0mm
08:34 42.3 °F /  5.7 °C 39.6 °F /  4.2 °C 30.5in /  1031.8hPa SO 3.3mph /  5.3km/h 6mph /  9.7km/h 90% 0in /  0.0mm
08:39 42.4 °F /  5.8 °C 39.7 °F /  4.3 °C 30.5in /  1032.0hPa SSO 3.1mph /  5km/h 6.2mph /  10km/h 90% 0in /  0.0mm
08:44 42.6 °F /  5.9 °C 39.9 °F /  4.4 °C 30.5in /  1032.0hPa Sur 3.1mph /  5km/h 6.2mph /  10km/h 90% 0in /  0.0mm
08:49 42.6 °F /  5.9 °C 39.7 °F /  4.3 °C 30.5in /  1032.0hPa SSE 3.1mph /  5km/h 6mph /  9.7km/h 89% 0in /  0.0mm
08:54 42.8 °F /  6 °C 39.7 °F /  4.3 °C 30.5in /  1032.1hPa SSE 3.7mph /  5.9km/h 6mph /  9.7km/h 89% 0in /  0.0mm
08:59 42.8 °F /  6 °C 39.7 °F /  4.3 °C 30.5in /  1032.1hPa SSE 4mph /  6.5km/h 5.9mph /  9.5km/h 89% 0in /  0.0mm
09:04 42.6 °F /  5.9 °C 39.6 °F /  4.2 °C 30.5in /  1032.1hPa SSE 3.7mph /  6km/h 6mph /  9.7km/h 89% 0in /  0.0mm
09:09 42.6 °F /  5.9 °C 39.6 °F /  4.2 °C 30.5in /  1032.4hPa Sur 3.6mph /  5.8km/h 7.4mph /  11.9km/h 89% 0in /  0.0mm
09:14 42.6 °F /  5.9 °C 39.6 °F /  4.2 °C 30.5in /  1032.4hPa SSE 4mph /  6.5km/h 7.4mph /  11.9km/h 89% 0in /  0.0mm
09:19 42.6 °F /  5.9 °C 39.6 °F /  4.2 °C 30.5in /  1032.4hPa Sur 4.3mph /  6.9km/h 7mph /  11.3km/h 89% 0in /  0.0mm
09:24 42.6 °F /  5.9 °C 39.6 °F /  4.2 °C 30.5in /  1032.6hPa Sur 4.3mph /  6.9km/h 6mph /  9.7km/h 89% 0in /  0.0mm
09:29 42.8 °F /  6 °C 39.9 °F /  4.4 °C 30.5in /  1032.6hPa SSE 4.3mph /  6.9km/h 6.9mph /  11.1km/h 89% 0in /  0.0mm
09:34 43 °F /  6.1 °C 40.1 °F /  4.5 °C 30.5in /  1032.6hPa Sur 4.1mph /  6.6km/h 7mph /  11.3km/h 89% 0in /  0.0mm
09:39 43.2 °F /  6.2 °C 40.1 °F /  4.5 °C 30.5in /  1032.7hPa SSE 4mph /  6.5km/h 6mph /  9.7km/h 89% 0in /  0.0mm
09:44 43.3 °F /  6.3 °C 40.5 °F /  4.7 °C 30.5in /  1032.7hPa Sur 3.8mph /  6.1km/h 5.9mph /  9.5km/h 89% 0in /  0.0mm
09:49 43.5 °F /  6.4 °C 40.5 °F /  4.7 °C 30.5in /  1032.7hPa Sur 3.6mph /  5.8km/h 6.9mph /  11.1km/h 88.5% 0in /  0.0mm
09:54 43.9 °F /  6.6 °C 40.5 °F /  4.7 °C 30.5in /  1032.9hPa Sur 4mph /  6.5km/h 7.4mph /  11.9km/h 88% 0in /  0.0mm
09:59 44.1 °F /  6.7 °C 40.6 °F /  4.8 °C 30.5in /  1032.9hPa Sur 4.3mph /  6.9km/h 7mph /  11.3km/h 88% 0in /  0.0mm
10:04 44.2 °F /  6.8 °C 40.8 °F /  4.9 °C 30.5in /  1032.9hPa Sur 4.3mph /  6.9km/h 7mph /  11.3km/h 87.7% 0in /  0.0mm
10:09 44.6 °F /  7 °C 41 °F /  5 °C 30.5in /  1033.2hPa Sur 4.3mph /  6.9km/h 7mph /  11.3km/h 87% 0in /  0.0mm
10:14 45 °F /  7.2 °C 41.2 °F /  5.1 °C 30.5in /  1033.2hPa Sur 4.1mph /  6.6km/h 6.2mph /  10km/h 86.6% 0in /  0.0mm
10:19 45.1 °F /  7.3 °C 41.2 °F /  5.1 °C 30.5in /  1033.2hPa Sur 4mph /  6.5km/h 6.9mph /  11.1km/h 86% 0in /  0.0mm
10:24 45.5 °F /  7.5 °C 41.4 °F /  5.2 °C 30.5in /  1033.4hPa Sur 4.5mph /  7.2km/h 8.1mph /  13km/h 85.1% 0in /  0.0mm
10:29 45.9 °F /  7.7 °C 41.5 °F /  5.3 °C 30.5in /  1033.4hPa SSO 4.7mph /  7.6km/h 8.1mph /  13km/h 85% 0in /  0.0mm
10:34 46.2 °F /  7.9 °C 41.7 °F /  5.4 °C 30.5in /  1033.4hPa Sur 4.7mph /  7.6km/h 8.1mph /  13km/h 84.3% 0in /  0.0mm
10:39 46.4 °F /  8 °C 41.5 °F /  5.3 °C 30.5in /  1033.5hPa SSO 4.7mph /  7.6km/h 8.1mph /  13km/h 83% 0in /  0.0mm
10:44 46.8 °F /  8.2 °C 41.9 °F /  5.5 °C 30.5in /  1033.5hPa Sur 4.7mph /  7.6km/h 8mph /  12.9km/h 83.2% 0in /  0.0mm
10:49 46.9 °F /  8.3 °C 41.9 °F /  5.5 °C 30.5in /  1033.5hPa SSO 4.7mph /  7.6km/h 8.1mph /  13km/h 82.7% 0in /  0.0mm
10:54 47.1 °F /  8.4 °C 41.9 °F /  5.5 °C 30.5in /  1033.6hPa Sur 4.7mph /  7.6km/h 8mph /  12.9km/h 82% 0in /  0.0mm
10:59 47.3 °F /  8.5 °C 42.3 °F /  5.7 °C 30.5in /  1033.6hPa SSO 4.7mph /  7.6km/h 7mph /  11.3km/h 82% 0in /  0.0mm
11:04 47.7 °F /  8.7 °C 42.4 °F /  5.8 °C 30.5in /  1033.6hPa SSO 4.4mph /  7.1km/h 7.4mph /  11.9km/h 82% 0in /  0.0mm
11:09 47.8 °F /  8.8 °C 42.6 °F /  5.9 °C 30.5in /  1033.7hPa SO 4.3mph /  6.9km/h 8.7mph /  14km/h 82% 0in /  0.0mm
11:14 48 °F /  8.9 °C 42.8 °F /  6 °C 30.5in /  1033.7hPa SO 4.5mph /  7.3km/h 9mph /  14.5km/h 82% 0in /  0.0mm
11:19 48 °F /  8.9 °C 42.8 °F /  6 °C 30.5in /  1033.7hPa SO 4.7mph /  7.6km/h 9.2mph /  14.8km/h 81.9% 0in /  0.0mm
11:24 48.2 °F /  9 °C 43 °F /  6.1 °C 30.5in /  1033.7hPa SO 4mph /  6.5km/h 9mph /  14.5km/h 81.9% 0in /  0.0mm
11:29 48.4 °F /  9.1 °C 43 °F /  6.1 °C 30.5in /  1033.7hPa SSO 3.6mph /  5.8km/h 9.2mph /  14.8km/h 82% 0in /  0.0mm
11:34 48.4 °F /  9.1 °C 43.2 °F /  6.2 °C 30.5in /  1033.7hPa SSO 4.3mph /  6.9km/h 9.2mph /  14.8km/h 82% 0in /  0.0mm
11:39 48.6 °F /  9.2 °C 43.2 °F /  6.2 °C 30.5in /  1033.7hPa SSO 4.7mph /  7.6km/h 9.2mph /  14.8km/h 82% 0in /  0.0mm
11:44 48.7 °F /  9.3 °C 43.5 °F /  6.4 °C 30.5in /  1033.7hPa SSO 4.7mph /  7.6km/h 8.5mph /  13.7km/h 82% 0in /  0.0mm
11:49 48.9 °F /  9.4 °C 43.7 °F /  6.5 °C 30.5in /  1033.7hPa SSO 4.7mph /  7.6km/h 9mph /  14.5km/h 82% 0in /  0.0mm
11:54 49.3 °F /  9.6 °C 44.1 °F /  6.7 °C 30.5in /  1033.7hPa Sur 5.5mph /  8.8km/h 9mph /  14.5km/h 82% 0in /  0.0mm
11:59 49.6 °F /  9.8 °C 44.6 °F /  7 °C 30.5in /  1033.5hPa Sur 5.9mph /  9.5km/h 9.7mph /  15.6km/h 82.8% 0in /  0.0mm
12:04 49.6 °F /  9.8 °C 44.8 °F /  7.1 °C 30.5in /  1033.5hPa Sur 5.6mph /  9km/h 10mph /  16.1km/h 83% 0in /  0.0mm
12:09 50 °F /  10 °C 44.8 °F /  7.1 °C 30.5in /  1033.5hPa Sur 5.4mph /  8.7km/h 9.2mph /  14.8km/h 82.3% 0in /  0.0mm
12:14 50.2 °F /  10.1 °C 45 °F /  7.2 °C 30.5in /  1033.2hPa SSE 5.4mph /  8.7km/h 9.2mph /  14.8km/h 82% 0in /  0.0mm
12:19 50.4 °F /  10.2 °C 44.8 °F /  7.1 °C 30.5in /  1033.2hPa Sur 5.4mph /  8.7km/h 9mph /  14.5km/h 81.5% 0in /  0.0mm
12:24 50.2 °F /  10.1 °C 44.8 °F /  7.1 °C 30.5in /  1033.2hPa SSO 5.4mph /  8.7km/h 9.7mph /  15.6km/h 81.5% 0in /  0.0mm
12:29 50.4 °F /  10.2 °C 45 °F /  7.2 °C 30.5in /  1033.0hPa SSO 5.4mph /  8.7km/h 10mph /  16.1km/h 82% 0in /  0.0mm
12:34 50.5 °F /  10.3 °C 45.1 °F /  7.3 °C 30.5in /  1033.0hPa Sur 5.4mph /  8.7km/h 9.2mph /  14.8km/h 82% 0in /  0.0mm
12:39 50.5 °F /  10.3 °C 45.1 °F /  7.3 °C 30.5in /  1033.0hPa SSO 5.4mph /  8.7km/h 9mph /  14.5km/h 82% 0in /  0.0mm
12:44 50.7 °F /  10.4 °C 45.3 °F /  7.4 °C 30.5in /  1032.9hPa Sur 5.4mph /  8.7km/h 8.5mph /  13.7km/h 82% 0in /  0.0mm
12:49 50.9 °F /  10.5 °C 45.5 °F /  7.5 °C 30.5in /  1032.9hPa SSO 5.4mph /  8.7km/h 9mph /  14.5km/h 81.3% 0in /  0.0mm
12:54 51.3 °F /  10.7 °C 45.7 °F /  7.6 °C 30.5in /  1032.9hPa Sur 5.3mph /  8.5km/h 8.1mph /  13km/h 81.5% 0in /  0.0mm
12:59 51.6 °F /  10.9 °C 45.7 °F /  7.6 °C 30.5in /  1032.6hPa Sur 5.2mph /  8.4km/h 8mph /  12.9km/h 80.4% 0in /  0.0mm
13:04 51.8 °F /  11 °C 45.9 °F /  7.7 °C 30.5in /  1032.6hPa SSO 4.6mph /  7.4km/h 9.2mph /  14.8km/h 79.9% 0in /  0.0mm
13:09 52 °F /  11.1 °C 45.9 °F /  7.7 °C 30.5in /  1032.6hPa Sur 4.3mph /  6.9km/h 9mph /  14.5km/h 79.6% 0in /  0.0mm
13:14 52.2 °F /  11.2 °C 46 °F /  7.8 °C 30.5in /  1032.4hPa Sur 4.5mph /  7.3km/h 8.1mph /  13km/h 79.4% 0in /  0.0mm
13:19 52.3 °F /  11.3 °C 46 °F /  7.8 °C 30.5in /  1032.4hPa SSE 4.7mph /  7.6km/h 9.2mph /  14.8km/h 78.6% 0in /  0.0mm
13:24 52.5 °F /  11.4 °C 45.9 °F /  7.7 °C 30.5in /  1032.4hPa SSE 5mph /  8.1km/h 9mph /  14.5km/h 78% 0in /  0.0mm
13:29 52.9 °F /  11.6 °C 46 °F /  7.8 °C 30.5in /  1032.0hPa SSE 5.2mph /  8.4km/h 8.1mph /  13km/h 77.5% 0in /  0.0mm
13:34 53.1 °F /  11.7 °C 46 °F /  7.8 °C 30.5in /  1032.0hPa SE 5.2mph /  8.4km/h 9.2mph /  14.8km/h 77.1% 0in /  0.0mm
13:39 52.9 °F /  11.6 °C 46 °F /  7.8 °C 30.5in /  1032.0hPa Sur 5.2mph /  8.4km/h 9mph /  14.5km/h 77.6% 0in /  0.0mm
13:44 52.5 °F /  11.4 °C 45.9 °F /  7.7 °C 30.5in /  1031.7hPa SSE 5.3mph /  8.6km/h 8.5mph /  13.7km/h 78% 0in /  0.0mm
13:49 52.3 °F /  11.3 °C 45.9 °F /  7.7 °C 30.5in /  1031.7hPa SE 5.4mph /  8.7km/h 9mph /  14.5km/h 78.8% 0in /  0.0mm
13:54 52.3 °F /  11.3 °C 45.9 °F /  7.7 °C 30.5in /  1031.7hPa SE 5.4mph /  8.7km/h 9mph /  14.5km/h 79% 0in /  0.0mm
13:59 52.5 °F /  11.4 °C 46.2 °F /  7.9 °C 30.5in /  1031.5hPa SSE 5.4mph /  8.7km/h 7.4mph /  11.9km/h 79.1% 0in /  0.0mm
14:04 52.7 °F /  11.5 °C 46.4 °F /  8 °C 30.5in /  1031.5hPa SSE 5mph /  8km/h 7mph /  11.3km/h 79% 0in /  0.0mm
14:09 53.1 °F /  11.7 °C 46.6 °F /  8.1 °C 30.5in /  1031.5hPa SSE 4.7mph /  7.6km/h 6.2mph /  10km/h 78.6% 0in /  0.0mm
14:14 53.2 °F /  11.8 °C 46.6 °F /  8.1 °C 30.5in /  1031.2hPa SSE 4.5mph /  7.2km/h 6.2mph /  10km/h 78% 0in /  0.0mm
14:19 53.6 °F /  12 °C 46.8 °F /  8.2 °C 30.5in /  1031.2hPa Sur 4.3mph /  6.9km/h 6.9mph /  11.1km/h 77.4% 0in /  0.0mm
14:24 54 °F /  12.2 °C 46.8 °F /  8.2 °C 30.5in /  1031.2hPa Sur 3.9mph /  6.3km/h 7mph /  11.3km/h 76.8% 0in /  0.0mm
14:29 54.1 °F /  12.3 °C 46.8 °F /  8.2 °C 30.4in /  1031.0hPa SSO 3.6mph /  5.8km/h 6mph /  9.7km/h 76% 0in /  0.0mm
14:34 54.1 °F /  12.3 °C 46.8 °F /  8.2 °C 30.4in /  1031.0hPa Sur 3.3mph /  5.3km/h 6mph /  9.7km/h 75.9% 0in /  0.0mm
14:39 54.3 °F /  12.4 °C 46.8 °F /  8.2 °C 30.4in /  1031.0hPa SO 3.1mph /  5km/h 5mph /  8km/h 75.3% 0in /  0.0mm
14:44 54.7 °F /  12.6 °C 46.8 °F /  8.2 °C 30.4in /  1030.9hPa SSE 3mph /  4.8km/h 5mph /  8km/h 74.7% 0in /  0.0mm
14:49 54.9 °F /  12.7 °C 46.9 °F /  8.3 °C 30.4in /  1030.9hPa Sur 2.9mph /  4.7km/h 5.2mph /  8.4km/h 74.4% 0in /  0.0mm
14:54 55 °F /  12.8 °C 46.9 °F /  8.3 °C 30.4in /  1030.9hPa Sur 2.9mph /  4.7km/h 5mph /  8km/h 74% 0in /  0.0mm
14:59 55 °F /  12.8 °C 46.9 °F /  8.3 °C 30.4in /  1030.8hPa SE 2.9mph /  4.7km/h 3.5mph /  5.6km/h 74% 0in /  0.0mm
15:04 55.2 °F /  12.9 °C 46.9 °F /  8.3 °C 30.4in /  1030.8hPa SSE 2.2mph /  3.5km/h 3.1mph /  5km/h 73.4% 0in /  0.0mm
15:09 55.6 °F /  13.1 °C 47.1 °F /  8.4 °C 30.4in /  1030.8hPa SO 1.8mph /  2.9km/h 3.5mph /  5.6km/h 73% 0in /  0.0mm
15:14 55.8 °F /  13.2 °C 47.1 °F /  8.4 °C 30.4in /  1030.8hPa Oeste 1.6mph /  2.5km/h 3.5mph /  5.6km/h 72.7% 0in /  0.0mm
15:19 55.9 °F /  13.3 °C 47.1 °F /  8.4 °C 30.4in /  1030.8hPa Sur 1.4mph /  2.2km/h 3.6mph /  5.8km/h 72.3% 0in /  0.0mm
15:24 56.1 °F /  13.4 °C 47.3 °F /  8.5 °C 30.4in /  1030.8hPa SSE 1.4mph /  2.2km/h 4mph /  6.4km/h 72% 0in /  0.0mm
15:29 56.5 °F /  13.6 °C 47.3 °F /  8.5 °C 30.4in /  1030.6hPa NE 1.4mph /  2.2km/h 4.6mph /  7.4km/h 71.3% 0in /  0.0mm
15:34 56.3 °F /  13.5 °C 46.9 °F /  8.3 °C 30.4in /  1030.6hPa NE 1.8mph /  2.9km/h 5mph /  8km/h 71% 0in /  0.0mm
15:39 56.5 °F /  13.6 °C 47.5 °F /  8.6 °C 30.4in /  1030.7hPa NNE 2mph /  3.2km/h 3mph /  4.8km/h 71.9% 0in /  0.0mm
15:44 56.5 °F /  13.6 °C 47.5 °F /  8.6 °C 30.4in /  1030.7hPa NNE 0.7mph /  1.2km/h 2mph /  3.2km/h 71.6% 0in /  0.0mm
15:49 56.5 °F /  13.6 °C 47.5 °F /  8.6 °C 30.4in /  1030.7hPa Calm   2.9mph /  4.7km/h 71.5% 0in /  0.0mm
15:54 56.7 °F /  13.7 °C 47.3 °F /  8.5 °C 30.4in /  1030.7hPa NNO 0.9mph /  1.4km/h 4.7mph /  7.6km/h 71% 0in /  0.0mm
15:59 56.5 °F /  13.6 °C 47.3 °F /  8.5 °C 30.4in /  1030.6hPa NE 1.4mph /  2.2km/h 5mph /  8km/h 71.2% 0in /  0.0mm
16:04 56.5 °F /  13.6 °C 47.7 °F /  8.7 °C 30.4in /  1030.6hPa ENE 2mph /  3.2km/h 5mph /  8km/h 72% 0in /  0.0mm
16:09 56.5 °F /  13.6 °C 47.7 °F /  8.7 °C 30.4in /  1030.6hPa ENE 2.4mph /  3.9km/h 4.6mph /  7.4km/h 72% 0in /  0.0mm
16:14 56.5 °F /  13.6 °C 47.7 °F /  8.7 °C 30.4in /  1030.5hPa Este 2.4mph /  3.9km/h 5mph /  8km/h 72% 0in /  0.0mm
16:19 56.5 °F /  13.6 °C 47.7 °F /  8.7 °C 30.4in /  1030.5hPa ENE 2.4mph /  3.9km/h 5.8mph /  9.3km/h 72% 0in /  0.0mm
16:24 56.5 °F /  13.6 °C 47.7 °F /  8.7 °C 30.4in /  1030.5hPa ENE 2.7mph /  4.4km/h 6.2mph /  10km/h 72% 0in /  0.0mm
16:29 56.7 °F /  13.7 °C 47.7 °F /  8.7 °C 30.4in /  1030.5hPa NNE 2.9mph /  4.7km/h 6mph /  9.7km/h 72% 0in /  0.0mm
16:34 56.7 °F /  13.7 °C 47.8 °F /  8.8 °C 30.4in /  1030.5hPa NE 2.3mph /  3.7km/h 5.8mph /  9.3km/h 72.2% 0in /  0.0mm
16:39 56.7 °F /  13.7 °C 47.7 °F /  8.7 °C 30.4in /  1030.5hPa NE 2mph /  3.2km/h 6mph /  9.7km/h 72% 0in /  0.0mm
16:44 56.7 °F /  13.7 °C 47.7 °F /  8.7 °C 30.4in /  1030.5hPa NNE 2.5mph /  4.1km/h 5mph /  8km/h 72% 0in /  0.0mm
16:49 56.7 °F /  13.7 °C 47.7 °F /  8.7 °C 30.4in /  1030.5hPa NNE 2.9mph /  4.7km/h 5mph /  8km/h 72% 0in /  0.0mm
16:54 56.7 °F /  13.7 °C 47.8 °F /  8.8 °C 30.4in /  1030.5hPa NE 2.5mph /  4.1km/h 5mph /  8km/h 72% 0in /  0.0mm
16:59 56.7 °F /  13.7 °C 47.7 °F /  8.7 °C 30.4in /  1030.4hPa NNE 2.4mph /  3.9km/h 5mph /  8km/h 72% 0in /  0.0mm
17:04 56.7 °F /  13.7 °C 48 °F /  8.9 °C 30.4in /  1030.4hPa NE 2.7mph /  4.4km/h 5mph /  8km/h 72.8% 0in /  0.0mm
17:09 56.7 °F /  13.7 °C 48 °F /  8.9 °C 30.4in /  1030.4hPa NE 2.9mph /  4.7km/h 6.2mph /  10km/h 73% 0in /  0.0mm
17:14 56.5 °F /  13.6 °C 47.8 °F /  8.8 °C 30.4in /  1030.4hPa NE 3.4mph /  5.4km/h 6mph /  9.7km/h 73% 0in /  0.0mm
17:19 56.5 °F /  13.6 °C 47.8 °F /  8.8 °C 30.4in /  1030.4hPa NE 3.6mph /  5.8km/h 5mph /  8km/h 73% 0in /  0.0mm
17:24 56.3 °F /  13.5 °C 47.8 °F /  8.8 °C 30.4in /  1030.5hPa NNE 3.3mph /  5.3km/h 5mph /  8km/h 73.3% 0in /  0.0mm
17:29 56.1 °F /  13.4 °C 48 °F /  8.9 °C 30.4in /  1030.5hPa NE 3.1mph /  5km/h 5mph /  8km/h 74% 0in /  0.0mm
17:34 56.1 °F /  13.4 °C 47.8 °F /  8.8 °C 30.4in /  1030.5hPa NNE 2.7mph /  4.3km/h 5mph /  8km/h 74% 0in /  0.0mm
17:39 56.1 °F /  13.4 °C 47.8 °F /  8.8 °C 30.4in /  1030.5hPa NNE 2.4mph /  3.9km/h 5mph /  8km/h 74% 0in /  0.0mm
17:44 55.9 °F /  13.3 °C 48 °F /  8.9 °C 30.4in /  1030.5hPa NNE 2.7mph /  4.4km/h 5mph /  8km/h 74.8% 0in /  0.0mm
17:49 55.8 °F /  13.2 °C 48 °F /  8.9 °C 30.4in /  1030.5hPa NNE 2.9mph /  4.7km/h 5mph /  8km/h 75% 0in /  0.0mm
17:54 55.8 °F /  13.2 °C 48 °F /  8.9 °C 30.4in /  1030.5hPa NNE 2.2mph /  3.5km/h 5.2mph /  8.4km/h 75% 0in /  0.0mm
17:59 55.6 °F /  13.1 °C 48 °F /  8.9 °C 30.4in /  1030.5hPa NE 1.8mph /  2.9km/h 5mph /  8km/h 76% 0in /  0.0mm
18:04 55.4 °F /  13 °C 48 °F /  8.9 °C 30.4in /  1030.5hPa NE 2.5mph /  4.1km/h 5mph /  8km/h 76% 0in /  0.0mm
18:09 55.2 °F /  12.9 °C 47.8 °F /  8.8 °C 30.4in /  1030.6hPa NE 2.9mph /  4.7km/h 5mph /  8km/h 76% 0in /  0.0mm
18:14 55.2 °F /  12.9 °C 48 °F /  8.9 °C 30.4in /  1030.6hPa Este 2.2mph /  3.5km/h 4mph /  6.4km/h 76.7% 0in /  0.0mm
18:19 55 °F /  12.8 °C 48 °F /  8.9 °C 30.4in /  1030.6hPa NE 1.8mph /  2.9km/h 4.7mph /  7.6km/h 77% 0in /  0.0mm
18:24 55 °F /  12.8 °C 48 °F /  8.9 °C 30.4in /  1030.7hPa NE 2.6mph /  4.2km/h 5.9mph /  9.5km/h 77% 0in /  0.0mm
18:29 55 °F /  12.8 °C 48 °F /  8.9 °C 30.4in /  1030.7hPa ENE 3.1mph /  5km/h 6mph /  9.7km/h 77% 0in /  0.0mm
18:34 55 °F /  12.8 °C 48 °F /  8.9 °C 30.4in /  1030.7hPa ENE 3.1mph /  5km/h 5mph /  8km/h 77% 0in /  0.0mm
18:39 55 °F /  12.8 °C 48 °F /  8.9 °C 30.4in /  1030.8hPa ENE 3.1mph /  5km/h 5mph /  8km/h 77% 0in /  0.0mm
18:44 55 °F /  12.8 °C 48 °F /  8.9 °C 30.4in /  1030.8hPa ENE 2.4mph /  3.9km/h 5mph /  8km/h 77% 0in /  0.0mm
18:49 55 °F /  12.8 °C 48 °F /  8.9 °C 30.4in /  1030.8hPa ENE 2mph /  3.2km/h 5mph /  8km/h 77% 0in /  0.0mm
18:54 55 °F /  12.8 °C 48 °F /  8.9 °C 30.4in /  1030.8hPa ENE 1.9mph /  3km/h 4mph /  6.4km/h 77% 0in /  0.0mm
18:59 54.9 °F /  12.7 °C 47.8 °F /  8.8 °C 30.4in /  1030.8hPa ENE 1.8mph /  2.9km/h 6.2mph /  10km/h 77% 0in /  0.0mm
19:04 54.9 °F /  12.7 °C 47.8 °F /  8.8 °C 30.4in /  1030.8hPa NE 2.5mph /  4.1km/h 6mph /  9.7km/h 77.1% 0in /  0.0mm
19:09 54.7 °F /  12.6 °C 48 °F /  8.9 °C 30.4in /  1030.9hPa NNE 2.9mph /  4.7km/h 5mph /  8km/h 78% 0in /  0.0mm
19:14 54.5 °F /  12.5 °C 47.7 °F /  8.7 °C 30.4in /  1030.9hPa North 2.9mph /  4.7km/h 5.2mph /  8.4km/h 78% 0in /  0.0mm
19:19 54 °F /  12.2 °C 47.3 °F /  8.5 °C 30.4in /  1030.9hPa NNO 2.9mph /  4.7km/h 5mph /  8km/h 78.2% 0in /  0.0mm
19:24 53.4 °F /  11.9 °C 47.1 °F /  8.4 °C 30.5in /  1031.2hPa NO 2.9mph /  4.7km/h 5mph /  8km/h 79.2% 0in /  0.0mm
19:29 53.1 °F /  11.7 °C 47.1 °F /  8.4 °C 30.5in /  1031.2hPa North 2.9mph /  4.6km/h 4.6mph /  7.4km/h 80.2% 0in /  0.0mm
19:34 52.9 °F /  11.6 °C 47.3 °F /  8.5 °C 30.5in /  1031.2hPa North 2.9mph /  4.7km/h 5mph /  8km/h 81.5% 0in /  0.0mm
19:39 52.5 °F /  11.4 °C 47.1 °F /  8.4 °C 30.5in /  1031.2hPa North 2.9mph /  4.7km/h 5.2mph /  8.4km/h 82% 0in /  0.0mm
19:44 52.3 °F /  11.3 °C 47.3 °F /  8.5 °C 30.5in /  1031.2hPa NNE 2.6mph /  4.2km/h 5mph /  8km/h 82.8% 0in /  0.0mm
19:49 52.3 °F /  11.3 °C 47.3 °F /  8.5 °C 30.5in /  1031.2hPa NNE 2.4mph /  3.9km/h 5mph /  8km/h 83% 0in /  0.0mm
19:54 52.2 °F /  11.2 °C 47.1 °F /  8.4 °C 30.5in /  1031.2hPa NNE 2.4mph /  3.9km/h 4mph /  6.4km/h 83% 0in /  0.0mm
19:59 52.2 °F /  11.2 °C 47.1 °F /  8.4 °C 30.5in /  1031.2hPa NNE 2.4mph /  3.9km/h 4.6mph /  7.4km/h 83.3% 0in /  0.0mm
20:04 52 °F /  11.1 °C 47.3 °F /  8.5 °C 30.5in /  1031.2hPa ENE 2.4mph /  3.9km/h 5mph /  8km/h 84% 0in /  0.0mm
20:09 52 °F /  11.1 °C 47.3 °F /  8.5 °C 30.5in /  1031.3hPa ESE 2.4mph /  3.9km/h 5.2mph /  8.4km/h 84% 0in /  0.0mm
20:14 52 °F /  11.1 °C 47.3 °F /  8.5 °C 30.5in /  1031.3hPa ESE 2.7mph /  4.4km/h 5mph /  8km/h 84% 0in /  0.0mm
20:19 52 °F /  11.1 °C 47.3 °F /  8.5 °C 30.5in /  1031.3hPa ESE 2.9mph /  4.6km/h 5mph /  8km/h 84% 0in /  0.0mm
20:24 52 °F /  11.1 °C 47.3 °F /  8.5 °C 30.5in /  1031.3hPa ESE 2.4mph /  3.8km/h 5mph /  8km/h 84% 0in /  0.0mm
20:29 51.8 °F /  11 °C 46.9 °F /  8.3 °C 30.5in /  1031.3hPa ESE 2mph /  3.2km/h 2.4mph /  3.9km/h 84% 0in /  0.0mm
20:34 51.6 °F /  10.9 °C 46.9 °F /  8.3 °C 30.5in /  1031.3hPa ESE 0.7mph /  1.2km/h 2mph /  3.2km/h 84% 0in /  0.0mm
20:39 51.4 °F /  10.8 °C 46.8 °F /  8.2 °C 30.5in /  1031.4hPa Calm   4.6mph /  7.4km/h 84% 0in /  0.0mm
20:44 51.3 °F /  10.7 °C 46.6 °F /  8.1 °C 30.5in /  1031.4hPa OSO 1.1mph /  1.8km/h 5mph /  8km/h 84.1% 0in /  0.0mm
20:49 50.7 °F /  10.4 °C 46.6 °F /  8.1 °C 30.5in /  1031.4hPa OSO 1.8mph /  2.9km/h 3.6mph /  5.8km/h 85% 0in /  0.0mm
20:54 50.5 °F /  10.3 °C 46.2 °F /  7.9 °C 30.5in /  1031.4hPa Oeste 1.6mph /  2.5km/h 4.6mph /  7.4km/h 85.1% 0in /  0.0mm
20:59 50.4 °F /  10.2 °C 46.2 °F /  7.9 °C 30.5in /  1031.3hPa Oeste 1.4mph /  2.2km/h 5mph /  8km/h 86% 0in /  0.0mm
21:04 50.4 °F /  10.2 °C 46.2 °F /  7.9 °C 30.5in /  1031.3hPa Oeste 2.1mph /  3.3km/h 5mph /  8km/h 86% 0in /  0.0mm
21:09 50.2 °F /  10.1 °C 46.2 °F /  7.9 °C 30.5in /  1031.4hPa Oeste 2.4mph /  3.9km/h 5mph /  8km/h 86% 0in /  0.0mm
21:14 50.2 °F /  10.1 °C 46.4 °F /  8 °C 30.5in /  1031.4hPa OSO 2.1mph /  3.4km/h 4mph /  6.4km/h 86.7% 0in /  0.0mm
21:19 50.2 °F /  10.1 °C 46.6 °F /  8.1 °C 30.5in /  1031.4hPa OSO 1.8mph /  2.9km/h 4mph /  6.4km/h 87% 0in /  0.0mm
21:24 50.2 °F /  10.1 °C 46.6 °F /  8.1 °C 30.5in /  1031.4hPa OSO 1.8mph /  2.9km/h 3mph /  4.8km/h 87% 0in /  0.0mm
21:29 50.2 °F /  10.1 °C 46.2 °F /  7.9 °C 30.5in /  1031.3hPa SE 1.8mph /  2.9km/h 3mph /  4.8km/h 86.2% 0in /  0.0mm
21:34 50.2 °F /  10.1 °C 46.4 °F /  8 °C 30.5in /  1031.3hPa SE 1.6mph /  2.5km/h 4.6mph /  7.4km/h 86.7% 0in /  0.0mm
21:39 50 °F /  10 °C 46.4 °F /  8 °C 30.5in /  1031.5hPa Sur 1.4mph /  2.2km/h 5mph /  8km/h 87% 0in /  0.0mm
21:44 50 °F /  10 °C 46.2 °F /  7.9 °C 30.5in /  1031.5hPa SSO 2.4mph /  3.8km/h 5.8mph /  9.3km/h 86.7% 0in /  0.0mm
21:49 50 °F /  10 °C 46 °F /  7.8 °C 30.5in /  1031.5hPa Sur 2.9mph /  4.7km/h 6mph /  9.7km/h 86% 0in /  0.0mm
21:54 49.8 °F /  9.9 °C 45.9 °F /  7.7 °C 30.5in /  1031.5hPa Sur 2.6mph /  4.2km/h 5mph /  8km/h 86% 0in /  0.0mm
21:59 49.6 °F /  9.8 °C 45.7 °F /  7.6 °C 30.5in /  1031.5hPa SSE 2.4mph /  3.9km/h 5mph /  8km/h 86% 0in /  0.0mm
22:04 49.6 °F /  9.8 °C 45.5 °F /  7.5 °C 30.5in /  1031.5hPa SSE 2.4mph /  3.9km/h 5mph /  8km/h 86% 0in /  0.0mm
22:09 49.5 °F /  9.7 °C 45.3 °F /  7.4 °C 30.5in /  1031.6hPa SSE 2.4mph /  3.9km/h 3mph /  4.8km/h 86% 0in /  0.0mm
22:14 49.3 °F /  9.6 °C 45.1 °F /  7.3 °C 30.5in /  1031.6hPa SSE 1.8mph /  2.9km/h 2mph /  3.2km/h 86% 0in /  0.0mm
22:19 48.9 °F /  9.4 °C 45 °F /  7.2 °C 30.5in /  1031.6hPa Sur 1.4mph /  2.2km/h 5.2mph /  8.4km/h 86% 0in /  0.0mm
22:24 48.7 °F /  9.3 °C 45 °F /  7.2 °C 30.5in /  1031.7hPa Sur 1.7mph /  2.7km/h 5.2mph /  8.4km/h 86.5% 0in /  0.0mm
22:29 48.6 °F /  9.2 °C 45 °F /  7.2 °C 30.5in /  1031.7hPa Sur 1.8mph /  2.9km/h 5mph /  8km/h 87% 0in /  0.0mm
22:34 48.4 °F /  9.1 °C 44.6 °F /  7 °C 30.5in /  1031.7hPa SSE 2.6mph /  4.2km/h 6.4mph /  10.3km/h 87% 0in /  0.0mm
22:39 47.8 °F /  8.8 °C 44.4 °F /  6.9 °C 30.5in /  1031.7hPa SSE 3.1mph /  5km/h 7mph /  11.3km/h 87.3% 0in /  0.0mm
22:44 47.8 °F /  8.8 °C 44.4 °F /  6.9 °C 30.5in /  1031.6hPa SSE 4.3mph /  7km/h 9.2mph /  14.8km/h 88% 0in /  0.0mm
22:49 47.7 °F /  8.7 °C 44.4 °F /  6.9 °C 30.5in /  1031.6hPa Sur 5.2mph /  8.4km/h 9mph /  14.5km/h 88% 0in /  0.0mm
22:54 47.7 °F /  8.7 °C 44.4 °F /  6.9 °C 30.5in /  1031.7hPa Sur 4.9mph /  7.9km/h 7mph /  11.3km/h 88.1% 0in /  0.0mm
22:59 47.7 °F /  8.7 °C 44.6 °F /  7 °C 30.5in /  1031.7hPa SSO 4.7mph /  7.6km/h 6.9mph /  11.1km/h 89% 0in /  0.0mm
23:04 47.7 °F /  8.7 °C 44.6 °F /  7 °C 30.5in /  1031.7hPa SSO 4.4mph /  7.1km/h 7mph /  11.3km/h 89% 0in /  0.0mm
23:09 47.7 °F /  8.7 °C 44.6 °F /  7 °C 30.5in /  1031.7hPa SO 4.3mph /  6.9km/h 7mph /  11.3km/h 89% 0in /  0.0mm
23:14 47.7 °F /  8.7 °C 44.6 °F /  7 °C 30.5in /  1031.7hPa SO 3.9mph /  6.3km/h 6mph /  9.7km/h 89% 0in /  0.0mm
23:19 47.7 °F /  8.7 °C 44.6 °F /  7 °C 30.5in /  1031.7hPa OSO 3.6mph /  5.8km/h 6mph /  9.7km/h 89% 0in /  0.0mm
23:24 47.7 °F /  8.7 °C 44.6 °F /  7 °C 30.5in /  1031.8hPa SO 2.9mph /  4.6km/h 5mph /  8km/h 89% 0in /  0.0mm
23:29 47.7 °F /  8.7 °C 44.2 °F /  6.8 °C 30.5in /  1031.8hPa SSO 2.4mph /  3.9km/h 5mph /  8km/h 88.1% 0in /  0.0mm
23:34 47.5 °F /  8.6 °C 44.1 °F /  6.7 °C 30.5in /  1031.8hPa SSO 2.7mph /  4.3km/h 5.2mph /  8.4km/h 88% 0in /  0.0mm
23:39 47.5 °F /  8.6 °C 44.1 °F /  6.7 °C 30.5in /  1031.8hPa Sur 2.9mph /  4.7km/h 5mph /  8km/h 88% 0in /  0.0mm
23:44 47.3 °F /  8.5 °C 44.1 °F /  6.7 °C 30.5in /  1031.8hPa SSE 2.9mph /  4.7km/h 5mph /  8km/h 88% 0in /  0.0mm
23:49 47.1 °F /  8.4 °C 43.7 °F /  6.5 °C 30.5in /  1031.8hPa SSE 2.9mph /  4.7km/h 5.8mph /  9.3km/h 88% 0in /  0.0mm
23:54 46.9 °F /  8.3 °C 43.5 °F /  6.4 °C 30.5in /  1031.8hPa SSE 3.4mph /  5.4km/h 6.9mph /  11.1km/h 88% 0in /  0.0mm
23:59 46.8 °F /  8.2 °C 43.3 °F /  6.3 °C 30.5in /  1031.8hPa Sur 3.6mph /  5.8km/h 7mph /  11.3km/h 88% 0in /  0.0mm
Murcia-Puente Tocinos, España
Compliments of Weather Underground - 2.75 mb

La estación de MeteoMurcia.com, publica sus datos en los siguientes proyectos:

Weather Underground PWS IMURCIAP2 Meteoclimatic www.awekas.at

W3Counter
Web Analytics